createdAt,value
2022-10-11T00:02:17.804Z,7.50
2022-10-11T00:07:20.571Z,7.60
2022-10-11T00:12:22.522Z,7.70
2022-10-11T00:17:24.348Z,7.60
2022-10-11T00:22:26.191Z,7.40
2022-10-11T00:27:28.350Z,7.40
2022-10-11T00:32:30.204Z,7.50
2022-10-11T00:37:37.900Z,7.30
2022-10-11T00:42:40.040Z,7.50
2022-10-11T00:47:41.941Z,7.60
2022-10-11T00:52:49.516Z,7.50
2022-10-11T00:57:53.635Z,7.60
2022-10-11T01:02:55.634Z,7.60
2022-10-11T01:08:00.172Z,7.60
2022-10-11T01:13:36.144Z,7.60
2022-10-11T01:18:46.873Z,7.60
2022-10-11T01:24:08.662Z,7.70
2022-10-11T01:29:41.407Z,7.80
2022-10-11T01:35:42.133Z,7.90
2022-10-11T01:40:55.879Z,7.90
2022-10-11T01:45:58.963Z,7.90
2022-10-11T01:51:03.554Z,8.00
2022-10-11T01:56:09.968Z,8.10
2022-10-11T02:01:39.389Z,8.30
2022-10-11T02:07:10.512Z,8.70
2022-10-11T02:12:16.700Z,9.00
2022-10-11T02:17:22.872Z,9.20
2022-10-11T02:22:36.115Z,9.40
2022-10-11T02:27:38.818Z,9.50
2022-10-11T02:32:43.571Z,9.50
2022-10-11T02:38:01.833Z,9.50
2022-10-11T02:43:11.065Z,9.50
2022-10-11T02:48:13.177Z,9.60
2022-10-11T02:53:15.099Z,9.70
2022-10-11T02:58:17.277Z,9.70
2022-10-11T03:03:19.107Z,9.70
2022-10-11T03:08:21.066Z,9.60
2022-10-11T03:13:22.983Z,9.60
2022-10-11T03:18:24.819Z,9.60
2022-10-11T03:23:26.639Z,9.50
2022-10-11T03:28:28.515Z,9.40
2022-10-11T03:33:30.326Z,9.40
2022-10-11T03:38:32.620Z,9.40
2022-10-11T03:43:34.478Z,9.50
2022-10-11T03:48:36.354Z,9.50
2022-10-11T03:53:38.714Z,9.60
2022-10-11T03:58:41.622Z,9.60
2022-10-11T04:03:43.426Z,9.60
2022-10-11T04:08:45.284Z,9.60
2022-10-11T04:13:47.254Z,9.60
2022-10-11T04:18:49.042Z,9.60
2022-10-11T04:23:50.900Z,9.70
2022-10-11T04:28:52.808Z,9.80
2022-10-11T04:33:54.766Z,9.90
2022-10-11T04:38:56.828Z,10.00
2022-10-11T04:43:58.688Z,9.90
2022-10-11T04:49:00.562Z,10.00
2022-10-11T04:54:02.403Z,9.90
2022-10-11T04:59:04.224Z,10.00
2022-10-11T05:04:06.020Z,10.10
2022-10-11T05:09:07.887Z,10.20
2022-10-11T05:14:09.690Z,10.20
2022-10-11T05:19:12.310Z,10.40
2022-10-11T05:24:14.132Z,10.40
2022-10-11T05:29:16.083Z,10.50
2022-10-11T05:34:17.924Z,10.60
2022-10-11T05:39:19.745Z,10.70
2022-10-11T05:44:21.620Z,10.80
2022-10-11T05:49:23.492Z,10.90
2022-10-11T05:54:25.456Z,11.00
2022-10-11T05:59:27.423Z,11.10
2022-10-11T06:04:29.249Z,11.20
2022-10-11T06:09:31.425Z,11.30
2022-10-11T06:14:33.481Z,11.40
2022-10-11T06:19:35.339Z,11.50
2022-10-11T06:24:37.211Z,11.60
2022-10-11T06:29:39.021Z,11.60
2022-10-11T06:34:40.879Z,11.70
2022-10-11T06:39:43.006Z,11.80
2022-10-11T06:44:44.843Z,11.90
2022-10-11T06:49:46.633Z,11.90
2022-10-11T06:54:48.417Z,11.90
2022-10-11T06:59:50.281Z,11.90
2022-10-11T07:04:52.079Z,11.90
2022-10-11T07:09:53.885Z,12.00
2022-10-11T07:14:55.661Z,12.10
2022-10-11T07:19:57.456Z,12.20
2022-10-11T07:24:59.343Z,12.10
2022-10-11T07:30:01.226Z,12.00
2022-10-11T07:35:03.182Z,11.80
2022-10-11T07:40:06.984Z,11.90
2022-10-11T07:45:09.067Z,12.00
2022-10-11T07:50:10.859Z,11.90
2022-10-11T07:55:12.691Z,12.00
2022-10-11T08:00:14.777Z,12.00
2022-10-11T08:05:16.774Z,12.00
2022-10-11T08:10:18.766Z,12.00
2022-10-11T08:15:21.763Z,12.00
2022-10-11T08:20:24.125Z,12.00
2022-10-11T08:25:25.975Z,12.00
2022-10-11T08:30:27.767Z,11.90
2022-10-11T08:35:29.561Z,11.90
2022-10-11T08:40:35.176Z,12.10
2022-10-11T08:45:48.576Z,12.50
2022-10-11T08:50:52.393Z,12.90
2022-10-11T08:55:55.188Z,13.10
2022-10-11T09:00:58.409Z,13.20
2022-10-11T14:05:41.251Z,14.10
2022-10-11T14:10:47.244Z,14.00
2022-10-11T14:16:21.779Z,13.80
2022-10-11T14:21:24.799Z,14.10
2022-10-11T14:26:30.981Z,14.10
2022-10-11T14:31:32.866Z,14.10
2022-10-11T14:36:34.795Z,13.90
2022-10-11T14:41:36.587Z,14.00
2022-10-11T14:46:39.312Z,13.90
2022-10-11T14:51:41.851Z,13.90
2022-10-11T14:56:43.801Z,13.90
2022-10-11T15:01:46.822Z,13.80
2022-10-11T15:06:49.475Z,13.80
2022-10-11T15:11:54.161Z,13.60
2022-10-11T15:16:56.359Z,13.40
2022-10-11T15:21:58.159Z,13.30
2022-10-11T15:27:00.116Z,13.20
2022-10-11T15:32:01.926Z,13.00
2022-10-11T15:37:03.764Z,12.80
2022-10-11T15:42:05.692Z,12.50
2022-10-11T15:47:07.516Z,12.20
2022-10-11T15:52:09.433Z,12.00
2022-10-11T15:57:11.283Z,11.80
2022-10-11T16:02:14.883Z,11.70
2022-10-11T16:07:16.778Z,11.40
2022-10-11T16:12:18.948Z,11.20
2022-10-11T16:17:20.760Z,10.90
2022-10-11T16:22:22.619Z,10.40
2022-10-11T16:27:24.441Z,10.20
2022-10-11T16:32:27.419Z,9.90
2022-10-11T16:37:31.009Z,9.90
2022-10-11T16:42:33.286Z,9.90
2022-10-11T16:47:35.191Z,9.70
2022-10-11T16:52:37.124Z,9.50
2022-10-11T16:57:39.009Z,9.20
2022-10-11T17:02:40.834Z,9.00
2022-10-11T17:07:43.563Z,8.90
2022-10-11T17:12:49.275Z,8.80
2022-10-11T17:17:55.747Z,8.70
2022-10-11T17:22:58.317Z,8.60
2022-10-11T17:28:00.108Z,8.50
2022-10-11T17:33:02.090Z,8.30
2022-10-11T17:38:06.314Z,8.30
2022-10-11T17:43:08.391Z,8.30
2022-10-11T17:48:10.206Z,8.20
2022-10-11T17:53:12.028Z,8.00
2022-10-11T17:58:13.879Z,7.80
2022-10-11T18:03:15.721Z,7.60
2022-10-11T18:08:17.845Z,7.80
2022-10-11T18:13:20.195Z,7.60
2022-10-11T18:18:22.060Z,7.60
2022-10-11T18:23:24.005Z,7.50
2022-10-11T18:28:25.975Z,7.40
2022-10-11T18:33:27.866Z,7.30
2022-10-11T18:38:29.787Z,7.10
2022-10-11T18:43:31.657Z,7.00
2022-10-11T18:48:34.335Z,6.90
2022-10-11T18:53:37.053Z,6.80
2022-10-11T18:58:40.024Z,6.60
2022-10-11T19:03:42.886Z,6.60
2022-10-11T19:08:50.125Z,6.50
2022-10-11T19:14:00.979Z,6.40
2022-10-11T19:19:04.367Z,6.40
2022-10-11T19:24:06.465Z,6.30
2022-10-11T19:29:18.666Z,6.20
2022-10-11T19:34:22.059Z,6.20
2022-10-11T19:39:24.432Z,6.10
2022-10-11T19:44:26.351Z,6.10
2022-10-11T19:49:28.290Z,6.10
2022-10-11T19:54:30.216Z,6.10
2022-10-11T19:59:32.050Z,5.90
2022-10-11T20:04:51.497Z,5.70
2022-10-11T20:09:54.077Z,5.50
2022-10-11T20:14:55.956Z,5.50
2022-10-11T20:19:57.782Z,5.50
2022-10-11T20:24:59.628Z,5.60
2022-10-11T20:30:01.477Z,5.50
2022-10-11T20:35:03.489Z,5.50
2022-10-11T20:40:05.766Z,5.40
2022-10-11T20:45:07.880Z,5.30
2022-10-11T20:50:09.821Z,5.20
2022-10-11T20:55:11.605Z,5.10
2022-10-11T21:00:13.952Z,5.00
2022-10-11T21:05:15.836Z,5.00
2022-10-11T21:10:17.671Z,4.90
2022-10-11T21:15:19.477Z,5.00
2022-10-11T21:20:21.332Z,5.00
2022-10-11T21:25:23.179Z,5.00
2022-10-11T21:30:25.347Z,5.00
2022-10-11T21:35:28.746Z,5.00
2022-10-11T21:40:30.566Z,4.90
2022-10-11T21:45:35.880Z,4.70
2022-10-11T21:50:37.685Z,4.80
2022-10-11T21:55:39.697Z,4.80
2022-10-11T22:00:41.506Z,4.90
2022-10-11T22:05:45.220Z,4.90
2022-10-11T22:10:52.933Z,4.90
2022-10-11T22:15:58.045Z,4.80
2022-10-11T22:21:07.964Z,4.80
2022-10-11T22:26:15.443Z,4.70
2022-10-11T22:31:19.549Z,4.70
2022-10-11T22:36:21.450Z,4.30
2022-10-11T22:41:23.756Z,4.20
2022-10-11T22:46:25.563Z,4.00
2022-10-11T22:51:27.367Z,4.20
2022-10-11T22:56:29.217Z,4.30
2022-10-11T23:01:31.029Z,4.30
2022-10-11T23:06:32.857Z,4.30
2022-10-11T23:11:34.685Z,4.40
2022-10-11T23:16:36.492Z,4.40
2022-10-11T23:21:38.341Z,4.40
2022-10-11T23:26:40.138Z,4.40
2022-10-11T23:31:41.939Z,4.50
2022-10-11T23:36:43.803Z,4.50
2022-10-11T23:41:45.583Z,4.50
2022-10-11T23:46:47.443Z,4.20
2022-10-11T23:51:49.235Z,4.20
2022-10-11T23:56:51.037Z,4.30
